createdAt,value
2018-06-09T00:01:37.782Z,20.50
2018-06-09T00:04:08.561Z,20.50
2018-06-09T00:06:39.313Z,20.40
2018-06-09T00:09:10.154Z,20.40
2018-06-09T00:11:41.006Z,20.40
2018-06-09T00:14:11.797Z,20.40
2018-06-09T00:16:42.633Z,20.40
2018-06-09T00:19:13.489Z,20.30
2018-06-09T00:21:44.320Z,20.30
2018-06-09T00:24:15.163Z,20.40
2018-06-09T00:26:46.075Z,20.50
2018-06-09T00:29:17.122Z,20.50
2018-06-09T00:31:47.928Z,20.50
2018-06-09T00:36:48.820Z,20.50
2018-06-09T00:39:19.666Z,20.60
2018-06-09T00:41:50.508Z,20.60
2018-06-09T00:44:21.251Z,20.80
2018-06-09T00:46:51.960Z,20.80
2018-06-09T00:49:22.933Z,20.80
2018-06-09T00:51:53.616Z,20.80
2018-06-09T00:54:24.351Z,20.70
2018-06-09T00:56:55.083Z,20.70
2018-06-09T00:59:25.974Z,20.70
2018-06-09T01:01:56.821Z,20.60
2018-06-09T01:04:27.583Z,20.50
2018-06-09T01:06:58.319Z,20.40
2018-06-09T01:09:29.219Z,20.30
2018-06-09T01:12:00.033Z,20.10
2018-06-09T01:14:30.728Z,20.10
2018-06-09T01:17:01.473Z,20.00
2018-06-09T01:19:32.401Z,20.00
2018-06-09T01:22:03.320Z,20.00
2018-06-09T01:24:34.173Z,19.90
2018-06-09T01:27:04.999Z,19.90
2018-06-09T01:29:35.896Z,19.90
2018-06-09T01:32:06.717Z,19.90
2018-06-09T01:34:37.744Z,19.80
2018-06-09T01:37:08.538Z,19.80
2018-06-09T01:39:39.328Z,19.80
2018-06-09T01:42:10.278Z,19.70
2018-06-09T01:44:41.114Z,19.60
2018-06-09T01:47:11.996Z,19.60
2018-06-09T01:49:43.384Z,19.60
2018-06-09T01:52:14.194Z,19.50
2018-06-09T01:54:45.028Z,19.40
2018-06-09T01:57:15.789Z,19.20
2018-06-09T01:59:46.614Z,19.20
2018-06-09T02:02:17.319Z,19.10
2018-06-09T02:04:48.091Z,19.10
2018-06-09T02:07:18.945Z,19.10
2018-06-09T02:09:49.666Z,19.00
2018-06-09T02:12:20.407Z,18.90
2018-06-09T02:14:51.084Z,18.80
2018-06-09T02:17:21.919Z,18.80
2018-06-09T02:19:52.643Z,18.80
2018-06-09T02:22:23.343Z,18.80
2018-06-09T02:24:54.145Z,18.80
2018-06-09T02:27:24.931Z,18.80
2018-06-09T02:34:56.213Z,19.00
2018-06-09T02:37:26.945Z,18.90
2018-06-09T02:39:57.709Z,18.90
2018-06-09T02:42:28.411Z,18.90
2018-06-09T02:44:59.189Z,19.00
2018-06-09T02:47:30.009Z,19.00
2018-06-09T02:50:00.933Z,19.10
2018-06-09T02:52:31.645Z,19.20
2018-06-09T02:55:02.471Z,19.20
2018-06-09T02:57:33.239Z,19.20
2018-06-09T03:02:34.405Z,19.20
2018-06-09T03:05:05.178Z,19.20
2018-06-09T03:07:35.897Z,19.10
2018-06-09T03:10:06.741Z,19.10
2018-06-09T03:12:37.485Z,19.20
2018-06-09T03:15:08.348Z,19.10
2018-06-09T03:17:39.135Z,19.10
2018-06-09T03:20:09.978Z,19.20
2018-06-09T03:22:40.783Z,19.20
2018-06-09T03:25:11.558Z,19.20
2018-06-09T03:27:42.369Z,19.30
2018-06-09T03:30:13.129Z,19.30
2018-06-09T03:32:43.947Z,19.30
2018-06-09T03:35:14.680Z,19.30
2018-06-09T03:37:45.526Z,19.30
2018-06-09T03:40:16.279Z,19.30
2018-06-09T03:42:47.101Z,19.30
2018-06-09T03:45:17.933Z,19.40
2018-06-09T03:47:48.651Z,19.40
2018-06-09T03:50:19.660Z,19.40
2018-06-09T03:52:50.494Z,19.40
2018-06-09T03:57:51.858Z,19.40
2018-06-09T04:00:22.644Z,19.50
2018-06-09T04:02:53.411Z,19.50
2018-06-09T04:05:24.354Z,19.50
2018-06-09T04:07:55.125Z,19.50
2018-06-09T04:10:25.863Z,19.50
2018-06-09T04:12:56.710Z,19.50
2018-06-09T04:15:27.596Z,19.60
2018-06-09T04:17:58.325Z,19.60
2018-06-09T04:20:29.132Z,19.70
2018-06-09T04:23:00.051Z,19.70
2018-06-09T04:25:32.021Z,19.70
2018-06-09T04:28:03.513Z,19.80
2018-06-09T04:30:34.384Z,19.80
2018-06-09T04:33:05.160Z,19.90
2018-06-09T04:35:35.896Z,19.90
2018-06-09T04:38:06.836Z,20.00
2018-06-09T04:40:37.691Z,20.10
2018-06-09T04:43:08.712Z,20.10
2018-06-09T04:45:39.536Z,20.10
2018-06-09T04:48:10.276Z,20.10
2018-06-09T04:50:41.597Z,20.10
2018-06-09T04:53:12.332Z,20.10
2018-06-09T04:55:43.087Z,20.10
2018-06-09T04:58:13.823Z,20.10
2018-06-09T05:00:44.637Z,20.10
2018-06-09T05:03:15.394Z,20.20
2018-06-09T05:05:46.168Z,20.30
2018-06-09T05:10:47.111Z,20.60
2018-06-09T05:13:17.884Z,20.70
2018-06-09T05:15:48.605Z,21.10
2018-06-09T05:18:19.480Z,21.40
2018-06-09T05:20:50.204Z,21.70
2018-06-09T05:23:20.906Z,21.90
2018-06-09T05:25:51.660Z,22.00
2018-06-09T05:28:22.314Z,21.90
2018-06-09T05:30:53.089Z,21.80
2018-06-09T05:35:53.965Z,21.70
2018-06-09T05:38:24.699Z,21.70
2018-06-09T05:40:55.400Z,21.70
2018-06-09T05:43:26.184Z,21.70
2018-06-09T05:45:56.863Z,21.70
2018-06-09T05:48:27.634Z,21.70
2018-06-09T05:50:58.545Z,21.70
2018-06-09T05:53:29.315Z,21.60
2018-06-09T05:56:00.065Z,21.70
2018-06-09T05:58:30.812Z,21.70
2018-06-09T06:01:01.612Z,21.80
2018-06-09T06:03:32.252Z,21.80
2018-06-09T06:06:02.943Z,21.70
2018-06-09T06:08:33.584Z,21.70
2018-06-09T06:11:04.275Z,21.70
2018-06-09T06:13:34.958Z,21.60
2018-06-09T06:16:05.836Z,21.60
2018-06-09T06:18:36.661Z,21.60
2018-06-09T06:21:07.613Z,21.60
2018-06-09T06:23:38.495Z,21.60
2018-06-09T06:26:09.291Z,21.60
2018-06-09T06:28:40.157Z,21.70
2018-06-09T06:33:41.535Z,22.10
2018-06-09T06:36:12.420Z,22.50
2018-06-09T06:38:43.131Z,22.80
2018-06-09T06:41:18.521Z,23.30
2018-06-09T06:43:49.228Z,24.40
2018-06-09T06:46:20.048Z,25.10
2018-06-09T06:48:50.840Z,25.50
2018-06-09T06:51:22.961Z,25.60
2018-06-09T06:53:53.870Z,25.10
2018-06-09T06:56:24.824Z,24.90
2018-06-09T06:58:55.725Z,24.60
2018-06-09T07:01:26.558Z,24.70
2018-06-09T07:03:57.463Z,25.00
2018-06-09T07:06:28.336Z,25.30
2018-06-09T07:08:59.169Z,25.40
2018-06-09T07:14:00.400Z,27.60
2018-06-09T07:16:32.162Z,29.20
2018-06-09T07:19:03.002Z,30.40
2018-06-09T07:21:33.954Z,31.20
2018-06-09T07:26:35.262Z,31.80
2018-06-09T07:29:06.218Z,32.70
2018-06-09T07:31:37.232Z,33.00
2018-06-09T07:34:08.073Z,33.30
2018-06-09T07:36:39.011Z,33.80
2018-06-09T07:39:09.961Z,34.40
2018-06-09T07:41:40.830Z,35.10
2018-06-09T07:44:12.075Z,35.20
2018-06-09T07:46:42.813Z,33.70
2018-06-09T07:49:13.415Z,32.90
2018-06-09T07:51:44.267Z,31.80
2018-06-09T07:54:14.815Z,30.70
2018-06-09T07:56:45.404Z,29.90
2018-06-09T07:59:15.966Z,29.60
2018-06-09T08:01:46.512Z,29.00
2018-06-09T08:04:17.141Z,28.80
2018-06-09T08:06:47.724Z,28.50
2018-06-09T08:09:18.411Z,28.00
2018-06-09T08:11:49.048Z,27.70
2018-06-09T08:14:19.749Z,27.50
2018-06-09T08:16:50.373Z,27.40
2018-06-09T08:19:21.140Z,27.20
2018-06-09T08:21:51.768Z,27.10
2018-06-09T08:26:52.449Z,27.00
2018-06-09T08:29:23.153Z,26.80
2018-06-09T08:31:53.753Z,26.60
2018-06-09T08:34:24.424Z,26.40
2018-06-09T08:36:55.124Z,26.40
2018-06-09T08:39:25.755Z,26.20
2018-06-09T08:41:56.437Z,26.10
2018-06-09T08:44:26.964Z,26.00
2018-06-09T08:46:57.607Z,25.90
2018-06-09T08:49:28.330Z,25.90
2018-06-09T08:51:59.143Z,25.80
2018-06-09T08:54:29.894Z,25.70
2018-06-09T08:57:00.587Z,25.60
2018-06-09T08:59:31.164Z,25.50
2018-06-09T09:02:17.000Z,25.40
2018-06-09T09:04:50.137Z,25.20
2018-06-09T09:07:21.317Z,25.00
2018-06-09T09:09:51.973Z,24.90
2018-06-09T09:12:22.576Z,24.90
2018-06-09T09:14:53.192Z,24.90
2018-06-09T09:17:24.077Z,24.90
2018-06-09T09:19:54.755Z,24.90
2018-06-09T09:22:25.591Z,24.90
2018-06-09T09:24:57.593Z,24.90
2018-06-09T09:27:28.301Z,25.00
2018-06-09T09:29:58.907Z,25.00
2018-06-09T09:32:30.463Z,25.00
2018-06-09T09:35:01.067Z,25.00
2018-06-09T09:40:02.546Z,24.90
2018-06-09T09:42:35.277Z,25.00
2018-06-09T09:45:07.514Z,25.00
2018-06-09T09:47:38.429Z,25.00
2018-06-09T10:03:36.289Z,25.00
2018-06-09T10:06:08.549Z,24.90
2018-06-09T10:08:39.167Z,24.90
2018-06-09T10:11:09.897Z,24.80
2018-06-09T10:13:40.588Z,24.90
2018-06-09T10:16:11.307Z,24.80
2018-06-09T10:18:41.882Z,24.80
2018-06-09T10:21:12.645Z,24.80
2018-06-09T10:23:43.409Z,24.90
2018-06-09T10:26:14.175Z,24.80
2018-06-09T10:28:45.208Z,24.90
2018-06-09T10:31:15.953Z,25.00
2018-06-09T10:33:46.656Z,25.10
2018-06-09T10:36:17.484Z,25.20
2018-06-09T10:38:48.585Z,25.30
2018-06-09T10:41:19.764Z,25.50
2018-06-09T10:43:50.426Z,25.50
2018-06-09T10:46:21.130Z,25.50
2018-06-09T10:48:51.751Z,25.60
2018-06-09T10:51:22.840Z,25.60
2018-06-09T10:53:53.637Z,25.60
2018-06-09T10:56:24.364Z,25.60
2018-06-09T10:58:55.157Z,25.60
2018-06-09T11:01:26.528Z,25.70
2018-06-09T11:03:57.387Z,25.70
2018-06-09T11:06:28.262Z,25.80
2018-06-09T11:08:59.057Z,25.80
2018-06-09T11:11:29.648Z,25.80
2018-06-09T11:14:00.226Z,25.90
2018-06-09T11:16:30.931Z,26.00
2018-06-09T11:19:01.578Z,26.10
2018-06-09T11:21:32.277Z,26.30
2018-06-09T11:24:03.016Z,26.40
2018-06-09T11:26:33.810Z,26.60
2018-06-09T11:29:04.692Z,26.70
2018-06-09T11:31:35.500Z,27.00
2018-06-09T11:34:06.505Z,27.20
2018-06-09T11:36:37.427Z,27.20
2018-06-09T11:39:11.166Z,27.40
2018-06-09T11:41:42.014Z,27.60
2018-06-09T11:44:14.004Z,27.70
2018-06-09T11:46:48.069Z,28.00
2018-06-09T11:49:19.919Z,27.90
2018-06-09T11:51:50.756Z,27.60
2018-06-09T11:54:21.669Z,27.40
2018-06-09T11:56:53.415Z,27.30
2018-06-09T11:59:24.263Z,27.20
2018-06-09T12:02:00.287Z,27.30
2018-06-09T12:09:37.861Z,27.60
2018-06-09T12:12:11.945Z,27.50
2018-06-09T12:14:42.871Z,27.50
2018-06-09T12:17:28.902Z,27.50
2018-06-09T12:20:02.040Z,27.50
2018-06-09T12:22:32.918Z,27.50
2018-06-09T12:25:03.740Z,27.60
2018-06-09T12:27:34.657Z,27.70
2018-06-09T12:30:05.662Z,27.70
2018-06-09T12:32:36.619Z,27.60
2018-06-09T12:35:22.146Z,27.70
2018-06-09T12:38:32.820Z,27.70
2018-06-09T12:44:11.564Z,27.90
2018-06-09T12:46:42.525Z,28.00
2018-06-09T12:49:13.425Z,28.00
2018-06-09T12:51:44.277Z,28.10
2018-06-09T12:54:15.864Z,28.10
2018-06-09T12:56:46.850Z,28.10
2018-06-09T12:59:17.758Z,28.10
2018-06-09T13:01:48.562Z,28.10
2018-06-09T13:04:19.721Z,28.00
2018-06-09T13:06:50.661Z,27.90
2018-06-09T13:09:21.566Z,28.00
2018-06-09T13:11:52.523Z,28.00
2018-06-09T13:14:23.548Z,28.10
2018-06-09T13:16:54.605Z,28.00
2018-06-09T13:19:25.526Z,27.90
2018-06-09T13:22:01.341Z,27.90
2018-06-09T13:24:37.037Z,28.00
2018-06-09T13:27:08.744Z,28.00
2018-06-09T13:29:39.714Z,27.90
2018-06-09T13:32:10.751Z,27.90
2018-06-09T13:34:43.201Z,27.80
2018-06-09T13:37:14.783Z,27.70
2018-06-09T13:39:46.510Z,27.70
2018-06-09T13:42:18.886Z,27.80
2018-06-09T13:47:19.977Z,27.70
2018-06-09T13:49:50.672Z,27.60
2018-06-09T13:52:21.643Z,27.70
2018-06-09T13:54:52.241Z,27.80
2018-06-09T13:59:53.543Z,27.60
2018-06-09T14:02:27.122Z,27.70
2018-06-09T14:04:58.773Z,27.80
2018-06-09T14:07:29.464Z,27.60
2018-06-09T14:12:36.220Z,27.50
2018-06-09T14:15:07.340Z,27.50
2018-06-09T14:17:38.093Z,27.60
2018-06-09T14:20:08.812Z,27.60
2018-06-09T14:22:39.438Z,27.50
2018-06-09T14:25:10.093Z,27.50
2018-06-09T14:27:40.823Z,27.60
2018-06-09T14:30:11.766Z,27.60
2018-06-09T14:32:42.563Z,27.60
2018-06-09T14:35:13.202Z,27.50
2018-06-09T14:37:44.018Z,27.50
2018-06-09T14:40:14.671Z,27.60
2018-06-09T14:42:45.395Z,27.50
2018-06-09T14:45:16.054Z,27.50
2018-06-09T14:47:46.775Z,27.50
2018-06-09T14:50:20.604Z,27.60
2018-06-09T14:52:51.485Z,27.40
2018-06-09T14:55:22.313Z,27.40
2018-06-09T14:57:53.148Z,27.50
2018-06-09T15:00:24.046Z,27.40
2018-06-09T15:02:54.938Z,27.30
2018-06-09T15:07:55.973Z,27.30
2018-06-09T15:10:26.894Z,27.30
2018-06-09T15:12:57.730Z,27.20
2018-06-09T15:15:28.543Z,27.10
2018-06-09T15:17:59.354Z,27.00
2018-06-09T15:20:30.175Z,27.00
2018-06-09T15:23:01.066Z,27.00
2018-06-09T15:25:35.351Z,27.00
2018-06-09T15:28:06.326Z,27.10
2018-06-09T15:30:37.077Z,27.00
2018-06-09T15:33:07.946Z,27.00
2018-06-09T15:35:38.666Z,26.90
2018-06-09T15:40:39.911Z,26.90
2018-06-09T15:43:10.717Z,26.80
2018-06-09T15:45:41.677Z,26.90
2018-06-09T15:48:12.574Z,26.90
2018-06-09T15:50:45.072Z,26.90
2018-06-09T15:53:15.954Z,26.90
2018-06-09T15:55:46.821Z,26.90
2018-06-09T15:58:17.704Z,26.90
2018-06-09T16:00:48.485Z,26.90
2018-06-09T16:03:19.483Z,26.80
2018-06-09T16:05:53.707Z,26.80
2018-06-09T16:08:24.529Z,26.80
2018-06-09T16:10:55.472Z,26.70
2018-06-09T16:13:26.201Z,26.70
2018-06-09T16:15:56.923Z,26.60
2018-06-09T16:18:28.368Z,26.60
2018-06-09T16:20:59.189Z,26.60
2018-06-09T16:23:29.927Z,26.60
2018-06-09T16:26:00.610Z,26.50
2018-06-09T16:33:32.362Z,26.50
2018-06-09T16:36:03.136Z,26.40
2018-06-09T16:38:33.944Z,26.50
2018-06-09T16:43:34.889Z,26.40
2018-06-09T16:46:05.688Z,26.40
2018-06-09T16:48:36.388Z,26.30
2018-06-09T16:51:07.176Z,26.20
2018-06-09T16:53:38.099Z,26.20
2018-06-09T16:56:08.965Z,26.20
2018-06-09T16:58:39.851Z,26.10
2018-06-09T17:01:10.560Z,26.00
2018-06-09T17:03:41.516Z,26.00
2018-06-09T17:06:12.238Z,26.00
2018-06-09T17:08:42.997Z,25.90
2018-06-09T17:11:13.921Z,26.00
2018-06-09T17:13:44.726Z,25.90
2018-06-09T17:16:15.514Z,25.90
2018-06-09T17:18:46.144Z,25.80
2018-06-09T17:21:16.775Z,25.80
2018-06-09T17:23:47.468Z,25.70
2018-06-09T17:28:59.841Z,25.70
2018-06-09T17:31:30.597Z,25.60
2018-06-09T17:34:01.370Z,25.60
2018-06-09T17:36:32.083Z,25.60
2018-06-09T17:39:02.833Z,25.60
2018-06-09T17:41:34.395Z,25.50
2018-06-09T17:44:05.234Z,25.50
2018-06-09T17:46:36.123Z,25.50
2018-06-09T17:49:06.846Z,25.40
2018-06-09T17:51:37.555Z,25.40
2018-06-09T17:54:08.344Z,25.30
2018-06-09T17:56:39.157Z,25.20
2018-06-09T17:59:10.061Z,25.20
2018-06-09T18:01:41.809Z,25.10
2018-06-09T18:04:14.353Z,25.10
2018-06-09T18:06:50.847Z,25.00
2018-06-09T18:09:21.600Z,24.90
2018-06-09T18:11:52.449Z,24.90
2018-06-09T18:14:23.294Z,24.80
2018-06-09T18:16:56.657Z,24.80
2018-06-09T18:19:30.224Z,24.70
2018-06-09T18:22:03.687Z,24.60
2018-06-09T18:24:34.431Z,24.60
2018-06-09T18:27:05.557Z,24.50
2018-06-09T18:29:36.580Z,24.50
2018-06-09T18:32:07.429Z,24.50
2018-06-09T18:34:38.396Z,24.40
2018-06-09T18:37:12.442Z,24.40
2018-06-09T18:39:43.362Z,24.40
2018-06-09T18:42:14.359Z,24.30
2018-06-09T18:44:45.299Z,24.30
2018-06-09T18:47:32.125Z,24.30
2018-06-09T18:50:02.995Z,24.30
2018-06-09T18:52:33.850Z,24.20
2018-06-09T18:57:35.063Z,24.20
2018-06-09T19:00:06.614Z,24.10
2018-06-09T19:02:37.519Z,24.00
2018-06-09T19:05:08.355Z,24.00
2018-06-09T19:07:39.189Z,23.90
2018-06-09T19:10:10.107Z,23.90
2018-06-09T19:15:11.532Z,23.80
2018-06-09T19:17:42.179Z,23.80
2018-06-09T19:20:13.027Z,23.70
2018-06-09T19:22:43.833Z,23.70
2018-06-09T19:25:14.755Z,23.60
2018-06-09T19:27:45.686Z,23.60
2018-06-09T19:30:16.370Z,23.60
2018-06-09T19:32:47.032Z,23.60
2018-06-09T19:35:17.706Z,23.60
2018-06-09T19:37:48.363Z,23.60
2018-06-09T19:40:19.096Z,23.40
2018-06-09T19:42:49.816Z,23.40
2018-06-09T19:45:20.461Z,23.30
2018-06-09T19:47:51.070Z,23.20
2018-06-09T19:50:21.769Z,23.10
2018-06-09T19:52:52.460Z,23.00
2018-06-09T19:55:23.143Z,23.00
2018-06-09T19:57:53.792Z,22.90
2018-06-09T20:00:24.430Z,22.90
2018-06-09T20:02:55.065Z,22.80
2018-06-09T20:05:25.740Z,22.80
2018-06-09T20:07:56.411Z,22.80
2018-06-09T20:10:27.091Z,22.70
2018-06-09T20:12:57.926Z,22.70
2018-06-09T20:15:28.581Z,22.70
2018-06-09T20:17:59.242Z,22.60
2018-06-09T20:20:29.899Z,22.60
2018-06-09T20:23:00.757Z,22.60
2018-06-09T20:25:31.645Z,22.60
2018-06-09T20:28:02.419Z,22.50
2018-06-09T20:30:35.422Z,22.50
2018-06-09T20:35:36.687Z,22.40
2018-06-09T20:40:37.857Z,22.40
2018-06-09T20:43:09.081Z,22.30
2018-06-09T20:45:39.961Z,22.30
2018-06-09T20:48:10.715Z,22.30
2018-06-09T20:50:41.586Z,22.20
2018-06-09T20:53:12.381Z,22.20
2018-06-09T20:55:43.185Z,22.10
2018-06-09T20:58:14.000Z,22.10
2018-06-09T21:00:44.889Z,22.10
2018-06-09T21:03:15.777Z,22.00
2018-06-09T21:08:16.803Z,21.80
2018-06-09T21:10:49.283Z,21.70
2018-06-09T21:13:37.283Z,21.60
2018-06-09T21:16:08.023Z,21.60
2018-06-09T21:18:38.673Z,21.60
2018-06-09T21:21:09.370Z,21.50
2018-06-09T21:23:41.390Z,21.50
2018-06-09T21:26:12.173Z,21.40
2018-06-09T21:28:47.962Z,21.50
2018-06-09T21:31:23.020Z,21.50
2018-06-09T21:34:10.334Z,21.50
2018-06-09T21:36:46.140Z,21.40
2018-06-09T21:39:21.978Z,21.30
2018-06-09T21:41:57.895Z,21.20
2018-06-09T21:44:33.652Z,21.10
2018-06-09T21:47:04.476Z,21.10
2018-06-09T21:49:35.321Z,21.00
2018-06-09T21:52:06.359Z,21.00
2018-06-09T21:54:37.328Z,21.00
2018-06-09T21:57:08.245Z,21.00
2018-06-09T21:59:39.053Z,21.00
2018-06-09T22:02:09.965Z,20.90
2018-06-09T22:04:40.852Z,20.90
2018-06-09T22:07:11.791Z,20.90
2018-06-09T22:12:13.133Z,20.80
2018-06-09T22:14:44.279Z,20.80
2018-06-09T22:17:15.088Z,20.80
2018-06-09T22:19:45.919Z,20.70
2018-06-09T22:22:16.779Z,20.60
2018-06-09T22:24:47.848Z,20.50
2018-06-09T22:29:49.127Z,20.50
2018-06-09T22:32:20.087Z,20.50
2018-06-09T22:34:50.926Z,20.50
2018-06-09T22:37:21.781Z,20.50
2018-06-09T22:39:52.617Z,20.40
2018-06-09T22:42:23.449Z,20.40
2018-06-09T22:44:54.329Z,20.40
2018-06-09T22:47:25.230Z,20.30
2018-06-09T22:53:36.709Z,20.20
2018-06-09T22:56:25.447Z,20.20
2018-06-09T22:59:01.302Z,20.20
2018-06-09T23:01:40.732Z,20.10
2018-06-09T23:04:12.684Z,20.10
2018-06-09T23:09:14.281Z,19.90
2018-06-09T23:11:45.334Z,19.90
2018-06-09T23:14:16.276Z,19.80
2018-06-09T23:16:47.358Z,19.80
2018-06-09T23:19:22.373Z,19.80
2018-06-09T23:21:54.539Z,19.80
2018-06-09T23:24:25.906Z,19.80
2018-06-09T23:26:57.082Z,19.80
2018-06-09T23:29:28.648Z,19.80
